Time;durP1;ratioP1;P1;durP2;ratioP2;P2;SDS_P1;SDS_P2;PMS_P1;PMS_P2;Temp;Humidity;BMP_temperature;BMP_pressure;BME280_temperature;BME280_humidity;BME280_pressure;Samples;Min_cycle;Max_cycle;Signal;HPM_P1;HPM_P2
2021/12/22 00:02:20;;;;;;;126.37;60.90;;;;;;;;;;4988630;28;21154;-79
2021/12/22 00:04:49;;;;;;;120.43;58.93;;;;;;;;;;4981325;28;21407;-79
2021/12/22 00:07:16;;;;;;;121.90;58.53;;;;;;;;;;4988967;28;20439;-78
2021/12/22 00:09:45;;;;;;;127.53;60.43;;;;;;;;;;4982930;28;20517;-79
2021/12/22 00:12:32;;;;;;;122.30;60.33;;;;;;;;;;4938099;28;20435;-79
2021/12/22 00:15:19;;;;;;;123.07;59.07;;;;;;;;;;4806497;28;20964;-78
2021/12/22 00:17:55;;;;;;;128.60;60.60;;;;;;;;;;4906858;28;20431;-78
2021/12/22 00:20:22;;;;;;;114.20;55.07;;;;;;;;;;5004734;28;20505;-78
2021/12/22 00:22:49;;;;;;;121.97;59.50;;;;;;;;;;5005426;28;20442;-78
2021/12/22 00:25:16;;;;;;;111.23;54.60;;;;;;;;;;5004794;28;20610;-78
2021/12/22 00:27:43;;;;;;;124.50;58.07;;;;;;;;;;5003434;28;20595;-78
2021/12/22 00:30:10;;;;;;;108.37;53.53;;;;;;;;;;5003387;28;20431;-78
2021/12/22 00:32:37;;;;;;;114.77;55.77;;;;;;;;;;5002353;28;20423;-78
2021/12/22 00:35:05;;;;;;;117.53;55.57;;;;;;;;;;5005266;28;20483;-78
2021/12/22 00:37:33;;;;;;;117.50;57.10;;;;;;;;;;5003379;28;20428;-78
2021/12/22 00:39:59;;;;;;;107.93;54.97;;;;;;;;;;4986322;28;20526;-78
2021/12/22 00:42:29;;;;;;;113.37;54.60;;;;;;;;;;5011366;28;21376;-78
2021/12/22 00:44:56;;;;;;;112.10;56.13;;;;;;;;;;5007084;28;20415;-78
2021/12/22 00:47:23;;;;;;;111.90;55.07;;;;;;;;;;5004855;28;20520;-78
2021/12/22 00:49:50;;;;;;;116.23;56.17;;;;;;;;;;5005652;28;20415;-78
2021/12/22 00:52:16;;;;;;;125.03;58.37;;;;;;;;;;4989559;28;20458;-78
2021/12/22 00:54:43;;;;;;;113.90;54.27;;;;;;;;;;5010266;28;20451;-78
2021/12/22 00:57:10;;;;;;;118.43;57.50;;;;;;;;;;5008950;28;20419;-78
2021/12/22 00:59:37;;;;;;;122.07;58.33;;;;;;;;;;5007818;28;21236;-78
2021/12/22 01:02:06;;;;;;;116.60;58.27;;;;;;;;;;4989275;28;20427;-78
2021/12/22 01:04:33;;;;;;;110.20;54.13;;;;;;;;;;4990159;28;20941;-78
2021/12/22 01:07:00;;;;;;;121.83;58.60;;;;;;;;;;5005172;28;20492;-78
2021/12/22 01:09:26;;;;;;;124.43;59.60;;;;;;;;;;5008282;28;20419;-77
2021/12/22 01:11:53;;;;;;;115.57;57.67;;;;;;;;;;4991985;28;20429;-78
2021/12/22 01:14:22;;;;;;;124.40;59.70;;;;;;;;;;5007828;28;20462;-78
2021/12/22 01:16:50;;;;;;;112.30;56.13;;;;;;;;;;4997061;28;20503;-78
2021/12/22 01:19:22;;;;;;;113.53;55.83;;;;;;;;;;5006168;28;20459;-78
2021/12/22 01:21:57;;;;;;;112.67;54.83;;;;;;;;;;4991851;28;21001;-78
2021/12/22 01:24:34;;;;;;;119.40;57.87;;;;;;;;;;5009289;28;20492;-78
2021/12/22 01:27:09;;;;;;;114.57;57.20;;;;;;;;;;4989150;28;20549;-78
2021/12/22 01:29:37;;;;;;;109.70;58.90;;;;;;;;;;5006248;28;20521;-78
2021/12/22 01:32:04;;;;;;;114.73;56.33;;;;;;;;;;5007138;28;20489;-78
2021/12/22 01:34:31;;;;;;;123.47;58.80;;;;;;;;;;4990681;28;20458;-78
2021/12/22 01:36:57;;;;;;;112.73;56.83;;;;;;;;;;4990819;28;20518;-78
2021/12/22 01:39:24;;;;;;;113.30;57.60;;;;;;;;;;5007493;28;20415;-78
2021/12/22 01:41:51;;;;;;;122.20;58.90;;;;;;;;;;5007327;28;20427;-78
2021/12/22 01:44:30;;;;;;;114.23;59.27;;;;;;;;;;5009895;28;21164;-78
2021/12/22 01:49:49;;;;;;;120.83;56.13;;;;;;;;;;5009133;28;20581;-78
2021/12/22 01:52:16;;;;;;;116.83;57.40;;;;;;;;;;5007966;28;20434;-77
2021/12/22 01:54:50;;;;;;;117.07;57.90;;;;;;;;;;4991659;28;20469;-78
2021/12/22 01:57:21;;;;;;;103.47;54.40;;;;;;;;;;5007567;28;20417;-78
2021/12/22 01:59:50;;;;;;;110.97;55.97;;;;;;;;;;5005767;28;20419;-78
2021/12/22 02:02:17;;;;;;;109.50;56.13;;;;;;;;;;4988919;28;20561;-78
2021/12/22 02:04:43;;;;;;;110.83;56.83;;;;;;;;;;4990688;28;20482;-78
2021/12/22 02:07:11;;;;;;;118.40;57.30;;;;;;;;;;5006938;28;20562;-78
2021/12/22 02:12:13;;;;;;;118.30;58.57;;;;;;;;;;5007587;28;21555;-78
2021/12/22 02:14:43;;;;;;;112.97;56.60;;;;;;;;;;5007421;28;20706;-78
2021/12/22 02:17:11;;;;;;;103.20;53.53;;;;;;;;;;5008116;28;20493;-78
2021/12/22 02:19:49;;;;;;;108.73;55.40;;;;;;;;;;5006969;28;20477;-78
2021/12/22 02:22:17;;;;;;;110.30;54.20;;;;;;;;;;5005259;28;20431;-78
2021/12/22 02:24:53;;;;;;;126.23;59.17;;;;;;;;;;5008701;28;20415;-78
2021/12/22 02:27:28;;;;;;;126.27;60.93;;;;;;;;;;5008070;28;20451;-78
2021/12/22 02:30:01;;;;;;;117.43;57.73;;;;;;;;;;4987684;28;20577;-78
2021/12/22 02:35:07;;;;;;;111.63;55.73;;;;;;;;;;5007106;28;20462;-78
2021/12/22 02:37:42;;;;;;;122.43;58.17;;;;;;;;;;5005737;28;20530;-78
2021/12/22 02:40:13;;;;;;;109.57;54.50;;;;;;;;;;4988793;28;20431;-78
2021/12/22 02:42:40;;;;;;;110.57;52.37;;;;;;;;;;5007997;28;20427;-78
2021/12/22 02:45:11;;;;;;;107.67;53.73;;;;;;;;;;5005062;28;21351;-78
2021/12/22 02:47:37;;;;;;;108.57;50.77;;;;;;;;;;4986860;28;21334;-78
2021/12/22 02:50:05;;;;;;;103.90;52.10;;;;;;;;;;5023967;28;20522;-78
2021/12/22 02:52:41;;;;;;;104.17;50.00;;;;;;;;;;4992073;28;20427;-79
2021/12/22 02:55:08;;;;;;;91.00;46.90;;;;;;;;;;4990690;28;20465;-78
2021/12/22 02:57:42;;;;;;;101.30;50.03;;;;;;;;;;5007216;28;21305;-78
2021/12/22 03:00:34;;;;;;;89.77;46.87;;;;;;;;;;5008642;28;21513;-78
2021/12/22 03:03:14;;;;;;;92.23;46.57;;;;;;;;;;5008221;28;21245;-78
2021/12/22 03:05:41;;;;;;;92.60;47.43;;;;;;;;;;5005031;28;20532;-78
2021/12/22 03:08:07;;;;;;;90.13;47.03;;;;;;;;;;4987003;28;20415;-78
2021/12/22 03:10:34;;;;;;;86.70;45.43;;;;;;;;;;5008673;28;21127;-78
2021/12/22 03:13:03;;;;;;;85.87;44.67;;;;;;;;;;5009623;28;20420;-78
2021/12/22 03:15:30;;;;;;;88.43;45.93;;;;;;;;;;5006655;28;20423;-78
2021/12/22 03:17:57;;;;;;;86.50;44.17;;;;;;;;;;4988411;28;20415;-78
2021/12/22 03:20:24;;;;;;;87.93;44.90;;;;;;;;;;5006564;28;20418;-78
2021/12/22 03:22:51;;;;;;;82.20;43.47;;;;;;;;;;4988017;28;20422;-78
2021/12/22 03:25:20;;;;;;;81.10;41.17;;;;;;;;;;4992367;28;20403;-78
2021/12/22 03:27:48;;;;;;;74.03;39.07;;;;;;;;;;4988832;28;21086;-79
2021/12/22 03:30:15;;;;;;;67.93;38.23;;;;;;;;;;5004886;28;20458;-78
2021/12/22 03:32:42;;;;;;;65.70;35.80;;;;;;;;;;4989621;28;20987;-78
2021/12/22 03:35:15;;;;;;;59.40;32.73;;;;;;;;;;4987638;28;20788;-78
2021/12/22 03:37:42;;;;;;;59.97;33.33;;;;;;;;;;4985857;28;20423;-78
2021/12/22 03:40:09;;;;;;;57.07;31.43;;;;;;;;;;5006208;28;20442;-79
2021/12/22 03:42:36;;;;;;;58.80;32.37;;;;;;;;;;5007886;28;20810;-78
2021/12/22 03:45:02;;;;;;;55.07;32.03;;;;;;;;;;4990326;28;20435;-78
2021/12/22 03:47:29;;;;;;;50.97;30.13;;;;;;;;;;5022838;28;21578;-78
2021/12/22 03:49:55;;;;;;;48.90;30.20;;;;;;;;;;4985214;28;20435;-78
2021/12/22 03:52:21;;;;;;;55.40;31.97;;;;;;;;;;4988896;28;21373;-78
2021/12/22 03:54:54;;;;;;;51.77;31.23;;;;;;;;;;4988809;28;20581;-78
2021/12/22 03:57:21;;;;;;;63.20;34.13;;;;;;;;;;5006180;28;20427;-78
2021/12/22 03:59:47;;;;;;;55.40;33.40;;;;;;;;;;5007178;28;20427;-78
2021/12/22 04:02:14;;;;;;;58.60;33.23;;;;;;;;;;5007705;28;21243;-77
2021/12/22 04:04:44;;;;;;;60.83;34.87;;;;;;;;;;5006668;28;20494;-78
2021/12/22 04:07:10;;;;;;;58.70;34.20;;;;;;;;;;5002973;28;20430;-78
2021/12/22 04:09:37;;;;;;;58.73;32.63;;;;;;;;;;5005026;28;20426;-78
2021/12/22 04:12:04;;;;;;;53.23;31.93;;;;;;;;;;5005922;28;20530;-78
2021/12/22 04:14:31;;;;;;;56.20;32.80;;;;;;;;;;4987423;28;20493;-77
2021/12/22 04:16:57;;;;;;;58.00;32.80;;;;;;;;;;5001312;28;20462;-77
2021/12/22 04:19:24;;;;;;;60.20;33.57;;;;;;;;;;5003913;28;20816;-77
2021/12/22 04:21:51;;;;;;;62.00;34.77;;;;;;;;;;5002549;28;20530;-77
2021/12/22 04:24:18;;;;;;;64.87;36.83;;;;;;;;;;4984485;28;21456;-78
2021/12/22 04:26:45;;;;;;;59.17;34.20;;;;;;;;;;5006263;28;20430;-77
2021/12/22 04:29:12;;;;;;;64.97;36.17;;;;;;;;;;5007936;28;20431;-77
2021/12/22 04:31:39;;;;;;;57.37;33.13;;;;;;;;;;4991039;28;20466;-77
2021/12/22 04:34:09;;;;;;;60.17;34.17;;;;;;;;;;5004508;28;20450;-77
2021/12/22 04:36:40;;;;;;;66.53;35.73;;;;;;;;;;4984523;28;20415;-77
2021/12/22 04:39:07;;;;;;;73.47;37.63;;;;;;;;;;5005286;28;20423;-78
2021/12/22 04:41:35;;;;;;;58.50;35.57;;;;;;;;;;5004528;28;20431;-77
2021/12/22 04:44:04;;;;;;;74.33;38.50;;;;;;;;;;4988561;28;20437;-77
2021/12/22 04:46:31;;;;;;;60.20;35.27;;;;;;;;;;5004488;28;20490;-77
2021/12/22 04:48:58;;;;;;;66.13;38.40;;;;;;;;;;5006932;28;20432;-77
2021/12/22 04:51:29;;;;;;;76.83;39.83;;;;;;;;;;4985778;28;20423;-77
2021/12/22 04:56:24;;;;;;;79.00;41.87;;;;;;;;;;5006906;28;20483;-77
2021/12/22 04:58:52;;;;;;;71.37;40.87;;;;;;;;;;5003342;28;20423;-79
2021/12/22 05:01:19;;;;;;;84.50;45.00;;;;;;;;;;5003318;28;20420;-79
2021/12/22 05:03:45;;;;;;;64.57;38.80;;;;;;;;;;5003331;28;20510;-79
2021/12/22 05:06:15;;;;;;;63.73;40.03;;;;;;;;;;4984538;28;20435;-79
2021/12/22 05:08:41;;;;;;;71.20;42.27;;;;;;;;;;5002485;28;20423;-79
2021/12/22 05:11:08;;;;;;;72.53;42.77;;;;;;;;;;4988761;28;20431;-78
2021/12/22 05:13:36;;;;;;;64.67;40.87;;;;;;;;;;5003945;28;20462;-77
2021/12/22 05:16:05;;;;;;;81.93;47.00;;;;;;;;;;5002181;28;20509;-78
2021/12/22 05:21:17;;;;;;;75.57;44.73;;;;;;;;;;5005220;28;20450;-78
2021/12/22 05:23:43;;;;;;;73.07;45.37;;;;;;;;;;4989233;28;20438;-78
2021/12/22 05:26:10;;;;;;;75.27;45.47;;;;;;;;;;4989997;28;20423;-78
2021/12/22 05:28:36;;;;;;;77.43;45.73;;;;;;;;;;5006031;28;20566;-78
2021/12/22 05:31:03;;;;;;;77.40;47.17;;;;;;;;;;5008292;28;20464;-78
2021/12/22 05:33:29;;;;;;;91.53;52.07;;;;;;;;;;5009929;28;20451;-78
2021/12/22 05:35:56;;;;;;;85.93;52.33;;;;;;;;;;4989488;28;20428;-78
2021/12/22 05:38:23;;;;;;;74.90;46.43;;;;;;;;;;4990892;28;20506;-77
2021/12/22 05:40:49;;;;;;;90.67;49.90;;;;;;;;;;5007413;28;20413;-78
2021/12/22 05:43:16;;;;;;;95.67;55.07;;;;;;;;;;4988851;28;20471;-77
2021/12/22 05:45:42;;;;;;;87.37;51.50;;;;;;;;;;5007766;28;20454;-77
2021/12/22 05:48:09;;;;;;;75.00;45.23;;;;;;;;;;5004614;28;20412;-77
2021/12/22 05:50:35;;;;;;;78.33;47.30;;;;;;;;;;4989577;28;20593;-77
2021/12/22 05:53:02;;;;;;;68.93;44.37;;;;;;;;;;5008907;28;20554;-79
2021/12/22 05:55:29;;;;;;;80.80;47.93;;;;;;;;;;4992739;28;20959;-78
2021/12/22 05:57:56;;;;;;;86.20;47.87;;;;;;;;;;5005428;28;20403;-78
2021/12/22 06:00:22;;;;;;;78.43;49.27;;;;;;;;;;5006866;28;20435;-79
2021/12/22 06:02:49;;;;;;;83.13;49.07;;;;;;;;;;4993251;28;20439;-79
2021/12/22 06:05:23;;;;;;;95.50;55.47;;;;;;;;;;4992471;28;21038;-79
2021/12/22 06:07:49;;;;;;;79.47;50.77;;;;;;;;;;5009549;28;20424;-78
2021/12/22 06:10:15;;;;;;;100.23;55.67;;;;;;;;;;5007537;28;20439;-79
2021/12/22 06:12:42;;;;;;;86.70;53.47;;;;;;;;;;5011039;28;20538;-78
2021/12/22 06:15:08;;;;;;;94.93;56.00;;;;;;;;;;4988474;28;20686;-78
2021/12/22 06:17:35;;;;;;;82.03;53.47;;;;;;;;;;5006267;28;20528;-79
2021/12/22 06:20:08;;;;;;;109.00;64.57;;;;;;;;;;5005518;28;20424;-79
2021/12/22 06:22:42;;;;;;;112.33;64.07;;;;;;;;;;5004355;28;20434;-79
2021/12/22 06:25:12;;;;;;;96.80;59.80;;;;;;;;;;5008762;28;20783;-78
2021/12/22 06:27:39;;;;;;;96.13;57.73;;;;;;;;;;4987402;28;20779;-78
2021/12/22 06:30:05;;;;;;;92.87;56.00;;;;;;;;;;5003300;28;20479;-78
2021/12/22 06:32:32;;;;;;;98.93;58.07;;;;;;;;;;5024300;28;21175;-79
2021/12/22 06:35:01;;;;;;;92.77;56.83;;;;;;;;;;5007977;28;21633;-79
2021/12/22 06:37:27;;;;;;;120.23;67.10;;;;;;;;;;4990389;28;20416;-79
2021/12/22 06:39:59;;;;;;;94.87;57.33;;;;;;;;;;5005921;28;20442;-79
2021/12/22 06:42:26;;;;;;;95.80;57.27;;;;;;;;;;5005423;28;20431;-79
2021/12/22 06:44:52;;;;;;;97.07;58.33;;;;;;;;;;5025308;28;20431;-79
2021/12/22 06:47:19;;;;;;;86.97;55.07;;;;;;;;;;5006674;28;20439;-79
2021/12/22 06:49:45;;;;;;;94.70;59.07;;;;;;;;;;5009810;28;20411;-79
2021/12/22 06:52:12;;;;;;;106.83;60.33;;;;;;;;;;4992032;28;20413;-80
2021/12/22 06:54:38;;;;;;;94.50;57.30;;;;;;;;;;5009367;28;20478;-80
2021/12/22 06:57:05;;;;;;;88.03;56.23;;;;;;;;;;5008961;28;20460;-79
2021/12/22 06:59:35;;;;;;;89.77;55.93;;;;;;;;;;5006740;28;20836;-79
2021/12/22 07:02:01;;;;;;;113.33;65.40;;;;;;;;;;5006727;28;20920;-79
2021/12/22 07:04:28;;;;;;;95.17;57.90;;;;;;;;;;5007699;28;20435;-79
2021/12/22 07:06:54;;;;;;;103.90;61.43;;;;;;;;;;5010879;28;20415;-80
2021/12/22 07:09:21;;;;;;;108.63;66.10;;;;;;;;;;5006693;28;21026;-79
2021/12/22 07:11:47;;;;;;;99.77;59.50;;;;;;;;;;5008487;28;20510;-79
2021/12/22 07:14:18;;;;;;;110.80;65.50;;;;;;;;;;5003159;28;20447;-79
2021/12/22 07:16:45;;;;;;;93.07;57.93;;;;;;;;;;5004988;28;20797;-79
2021/12/22 07:19:14;;;;;;;88.00;56.07;;;;;;;;;;5006790;28;20431;-78
2021/12/22 07:21:41;;;;;;;90.80;57.63;;;;;;;;;;5009138;28;20515;-79
2021/12/22 07:24:08;;;;;;;93.57;58.07;;;;;;;;;;5009199;28;20428;-79
2021/12/22 07:26:34;;;;;;;100.63;61.83;;;;;;;;;;4992933;28;20447;-79
2021/12/22 07:29:01;;;;;;;103.40;61.87;;;;;;;;;;5007247;28;20431;-79
2021/12/22 07:31:27;;;;;;;120.00;70.50;;;;;;;;;;4992635;28;20435;-79
2021/12/22 07:33:53;;;;;;;117.73;68.43;;;;;;;;;;4993602;28;20529;-80
2021/12/22 07:36:20;;;;;;;94.80;60.40;;;;;;;;;;4988553;28;21366;-79
2021/12/22 07:38:57;;;;;;;92.73;60.57;;;;;;;;;;4986017;28;20518;-79
2021/12/22 07:41:23;;;;;;;91.77;60.03;;;;;;;;;;5009208;28;20538;-80
2021/12/22 07:44:16;;;;;;;99.43;61.77;;;;;;;;;;5007728;28;21311;-80
2021/12/22 07:46:43;;;;;;;120.73;69.77;;;;;;;;;;4989015;28;20499;-80
2021/12/22 07:49:09;;;;;;;112.17;66.27;;;;;;;;;;4992751;28;21056;-80
2021/12/22 07:51:38;;;;;;;124.00;72.77;;;;;;;;;;5007390;28;20431;-80
2021/12/22 07:54:05;;;;;;;109.17;67.30;;;;;;;;;;5004936;28;20459;-80
2021/12/22 07:56:35;;;;;;;87.13;59.87;;;;;;;;;;4989307;28;20427;-79
2021/12/22 07:59:14;;;;;;;117.80;70.37;;;;;;;;;;5008494;28;20481;-80
2021/12/22 08:01:41;;;;;;;96.87;61.63;;;;;;;;;;4989584;28;20427;-80
2021/12/22 08:04:14;;;;;;;99.90;61.73;;;;;;;;;;5007655;28;20574;-80
2021/12/22 08:06:40;;;;;;;119.73;70.37;;;;;;;;;;5004909;28;20821;-80
2021/12/22 08:09:09;;;;;;;100.87;61.63;;;;;;;;;;4992876;28;20422;-79
2021/12/22 08:11:46;;;;;;;103.93;63.20;;;;;;;;;;5022630;28;20446;-80
2021/12/22 08:14:19;;;;;;;90.57;57.37;;;;;;;;;;5006630;28;20454;-80
2021/12/22 08:16:46;;;;;;;99.83;59.90;;;;;;;;;;5008760;28;20522;-80
2021/12/22 08:19:15;;;;;;;106.80;61.53;;;;;;;;;;5020335;28;20431;-80
2021/12/22 08:21:48;;;;;;;87.33;52.77;;;;;;;;;;4985362;28;20491;-80
2021/12/22 08:24:15;;;;;;;87.87;55.70;;;;;;;;;;5008266;28;20439;-80
2021/12/22 08:26:41;;;;;;;106.70;59.93;;;;;;;;;;5022808;28;21245;-80
2021/12/22 08:29:11;;;;;;;91.40;57.00;;;;;;;;;;4992028;28;21160;-80
2021/12/22 08:31:38;;;;;;;92.43;56.57;;;;;;;;;;5009209;28;20431;-80
2021/12/22 08:34:21;;;;;;;87.67;56.33;;;;;;;;;;4986981;28;20461;-80
2021/12/22 08:39:57;;;;;;;86.33;53.97;;;;;;;;;;4979369;28;20424;-80
2021/12/22 08:42:27;;;;;;;93.17;55.27;;;;;;;;;;4981942;28;20943;-80
2021/12/22 08:44:54;;;;;;;83.90;52.57;;;;;;;;;;4985835;28;20777;-79
2021/12/22 08:47:20;;;;;;;87.60;55.53;;;;;;;;;;5006834;28;20896;-79
2021/12/22 08:49:47;;;;;;;88.60;55.27;;;;;;;;;;5004826;28;20454;-79
2021/12/22 08:52:17;;;;;;;95.37;55.30;;;;;;;;;;5008601;28;20435;-79
2021/12/22 08:54:43;;;;;;;81.23;51.63;;;;;;;;;;5003294;28;21508;-80
2021/12/22 08:57:11;;;;;;;86.33;54.37;;;;;;;;;;5005288;28;20434;-79
2021/12/22 08:59:38;;;;;;;86.00;53.07;;;;;;;;;;5005328;28;20439;-80
2021/12/22 09:02:08;;;;;;;92.60;56.17;;;;;;;;;;5013159;28;20548;-79
2021/12/22 09:04:40;;;;;;;85.67;51.87;;;;;;;;;;5013778;28;21101;-79
2021/12/22 09:07:15;;;;;;;92.60;57.27;;;;;;;;;;4994039;28;20431;-79
2021/12/22 09:09:45;;;;;;;100.73;56.03;;;;;;;;;;4979788;28;20431;-79
2021/12/22 09:12:18;;;;;;;81.83;50.67;;;;;;;;;;5014629;28;21010;-79
2021/12/22 09:14:47;;;;;;;84.03;50.63;;;;;;;;;;5010568;28;20633;-79
2021/12/22 09:17:14;;;;;;;78.97;49.53;;;;;;;;;;5007547;28;20902;-79
2021/12/22 09:19:51;;;;;;;81.57;48.57;;;;;;;;;;4994496;28;20443;-79
2021/12/22 09:22:18;;;;;;;81.83;50.23;;;;;;;;;;4990540;28;20427;-79
2021/12/22 09:24:47;;;;;;;76.50;47.97;;;;;;;;;;5009578;28;20431;-79
2021/12/22 09:27:14;;;;;;;77.97;48.37;;;;;;;;;;5013224;28;20568;-79
2021/12/22 09:29:42;;;;;;;86.53;51.73;;;;;;;;;;5011221;28;20427;-79
2021/12/22 09:32:12;;;;;;;92.33;54.50;;;;;;;;;;4995901;28;20592;-79
2021/12/22 09:34:42;;;;;;;83.17;50.73;;;;;;;;;;4990921;28;21427;-79
2021/12/22 09:37:12;;;;;;;80.77;50.67;;;;;;;;;;5007204;28;20417;-80
2021/12/22 09:39:41;;;;;;;91.60;52.40;;;;;;;;;;4994012;28;20443;-79
2021/12/22 09:42:11;;;;;;;80.03;47.33;;;;;;;;;;5010777;28;20461;-80
2021/12/22 09:44:46;;;;;;;69.77;43.43;;;;;;;;;;5010181;28;20493;-80
2021/12/22 09:47:16;;;;;;;69.50;44.10;;;;;;;;;;5010241;28;20437;-79
2021/12/22 09:52:21;;;;;;;73.83;44.80;;;;;;;;;;5012899;28;20423;-79
2021/12/22 09:54:49;;;;;;;77.60;47.63;;;;;;;;;;4994957;28;20572;-80
2021/12/22 09:57:17;;;;;;;74.87;47.50;;;;;;;;;;5012936;28;20538;-79
2021/12/22 09:59:46;;;;;;;81.43;47.87;;;;;;;;;;4995748;28;20408;-79
2021/12/22 10:02:15;;;;;;;78.70;44.80;;;;;;;;;;4994544;28;20431;-79
2021/12/22 10:04:41;;;;;;;82.53;47.80;;;;;;;;;;4990600;28;20538;-79
2021/12/22 10:07:20;;;;;;;86.03;50.17;;;;;;;;;;4995546;28;20427;-79
2021/12/22 10:09:47;;;;;;;79.03;48.27;;;;;;;;;;5010515;28;20424;-79
2021/12/22 10:12:21;;;;;;;77.87;46.50;;;;;;;;;;5011151;28;20479;-79
2021/12/22 10:14:52;;;;;;;77.90;47.37;;;;;;;;;;5010139;28;20472;-79
2021/12/22 10:17:34;;;;;;;75.60;44.37;;;;;;;;;;5010023;28;20541;-79
2021/12/22 10:20:01;;;;;;;83.20;44.63;;;;;;;;;;4994795;28;20447;-80
2021/12/22 10:22:34;;;;;;;84.57;46.80;;;;;;;;;;5013512;28;21505;-79
2021/12/22 10:25:09;;;;;;;79.53;44.50;;;;;;;;;;5008415;28;20420;-79
2021/12/22 10:27:42;;;;;;;84.67;47.63;;;;;;;;;;4992356;28;20427;-79
2021/12/22 10:30:35;;;;;;;75.57;45.53;;;;;;;;;;5014018;28;20423;-79
2021/12/22 10:33:09;;;;;;;83.97;46.60;;;;;;;;;;4991676;28;20427;-79
2021/12/22 10:35:39;;;;;;;82.37;48.57;;;;;;;;;;5008307;28;20555;-80
2021/12/22 10:38:06;;;;;;;73.67;43.93;;;;;;;;;;4992172;28;20799;-79
2021/12/22 10:40:39;;;;;;;61.43;40.30;;;;;;;;;;4990828;28;20497;-79
2021/12/22 10:43:09;;;;;;;68.83;42.40;;;;;;;;;;5011388;28;21398;-78
2021/12/22 10:45:36;;;;;;;70.87;41.13;;;;;;;;;;4991575;28;20421;-78
2021/12/22 10:50:57;;;;;;;71.00;41.63;;;;;;;;;;5011725;28;20512;-78
2021/12/22 10:53:24;;;;;;;58.57;35.20;;;;;;;;;;5009585;28;20513;-78
2021/12/22 10:55:54;;;;;;;50.87;33.17;;;;;;;;;;4993337;28;20411;-78
2021/12/22 10:58:28;;;;;;;49.93;33.37;;;;;;;;;;5008571;28;20538;-78
2021/12/22 11:01:17;;;;;;;51.00;31.67;;;;;;;;;;4993364;28;20547;-78
2021/12/22 11:03:48;;;;;;;52.40;32.80;;;;;;;;;;5023017;28;20554;-79
2021/12/22 11:06:26;;;;;;;54.27;31.10;;;;;;;;;;5011157;28;20463;-78
2021/12/22 11:08:53;;;;;;;51.27;28.93;;;;;;;;;;5013360;28;20417;-79
2021/12/22 11:11:20;;;;;;;45.70;29.53;;;;;;;;;;4990498;28;20443;-79
2021/12/22 11:14:03;;;;;;;53.93;30.73;;;;;;;;;;5008671;28;20455;-79
2021/12/22 11:16:33;;;;;;;54.87;32.67;;;;;;;;;;5008332;28;20534;-79
2021/12/22 11:19:10;;;;;;;50.70;30.77;;;;;;;;;;4989842;28;20435;-78
2021/12/22 11:21:40;;;;;;;47.77;29.73;;;;;;;;;;4992282;28;20412;-78
2021/12/22 11:24:07;;;;;;;47.07;29.03;;;;;;;;;;5009991;28;20543;-78
2021/12/22 11:26:34;;;;;;;45.23;29.47;;;;;;;;;;5025773;28;21409;-78
2021/12/22 11:29:01;;;;;;;48.73;30.03;;;;;;;;;;5008701;28;20423;-79
2021/12/22 11:31:59;;;;;;;42.40;29.10;;;;;;;;;;5007224;28;20419;-78
2021/12/22 11:34:33;;;;;;;46.63;29.50;;;;;;;;;;4999832;28;21072;-78
2021/12/22 11:37:01;;;;;;;38.70;25.60;;;;;;;;;;5009958;28;20433;-78
2021/12/22 11:39:28;;;;;;;43.53;27.43;;;;;;;;;;4989794;28;21209;-78
2021/12/22 11:42:00;;;;;;;35.80;24.53;;;;;;;;;;5009952;28;20437;-78
2021/12/22 11:44:39;;;;;;;38.23;24.63;;;;;;;;;;4990364;28;20447;-78
2021/12/22 11:47:08;;;;;;;34.47;22.70;;;;;;;;;;5010289;28;20427;-79
2021/12/22 11:49:37;;;;;;;34.27;22.23;;;;;;;;;;4987315;28;21182;-79
2021/12/22 11:52:29;;;;;;;35.30;21.37;;;;;;;;;;5011141;28;20424;-79
2021/12/22 11:55:16;;;;;;;32.67;20.80;;;;;;;;;;4991343;28;20447;-79
2021/12/22 11:57:45;;;;;;;28.87;19.77;;;;;;;;;;5009645;28;20415;-79
2021/12/22 12:00:30;;;;;;;27.37;19.37;;;;;;;;;;4989985;28;20427;-79
2021/12/22 12:02:58;;;;;;;31.07;19.77;;;;;;;;;;4996344;28;20477;-79
2021/12/22 12:05:26;;;;;;;31.80;20.90;;;;;;;;;;5007285;28;20427;-79
2021/12/22 12:08:02;;;;;;;31.63;19.87;;;;;;;;;;4987059;28;20522;-79
2021/12/22 12:10:46;;;;;;;30.83;20.87;;;;;;;;;;5022455;28;20516;-79
2021/12/22 12:13:46;;;;;;;33.47;21.50;;;;;;;;;;5009353;28;20408;-79
2021/12/22 12:22:05;;;;;;;32.17;21.00;;;;;;;;;;5011603;28;20422;-79
2021/12/22 12:24:32;;;;;;;36.70;23.00;;;;;;;;;;4992578;28;20407;-79
2021/12/22 12:27:00;;;;;;;32.47;22.40;;;;;;;;;;4996136;28;20465;-79
2021/12/22 12:29:45;;;;;;;33.33;22.10;;;;;;;;;;5008836;28;20419;-79
2021/12/22 12:32:41;;;;;;;36.10;21.77;;;;;;;;;;5023053;28;20494;-80
2021/12/22 12:35:19;;;;;;;33.17;22.63;;;;;;;;;;5008680;28;20451;-80
2021/12/22 12:38:06;;;;;;;39.70;23.47;;;;;;;;;;4994366;28;20423;-80
2021/12/22 12:40:51;;;;;;;34.90;21.93;;;;;;;;;;5006617;28;20426;-79
2021/12/22 12:43:18;;;;;;;35.27;22.63;;;;;;;;;;5011505;28;20408;-79
2021/12/22 12:45:47;;;;;;;36.83;23.33;;;;;;;;;;4991111;28;20434;-79
2021/12/22 12:48:33;;;;;;;31.90;22.47;;;;;;;;;;4992460;28;20530;-79
2021/12/22 12:51:30;;;;;;;34.27;22.57;;;;;;;;;;5007001;28;20416;-80
2021/12/22 12:53:58;;;;;;;30.57;19.27;;;;;;;;;;5009481;28;20457;-80
2021/12/22 12:56:31;;;;;;;32.03;20.03;;;;;;;;;;4986058;28;20933;-79
2021/12/22 12:58:58;;;;;;;28.80;19.03;;;;;;;;;;4989502;28;20427;-79
2021/12/22 13:01:43;;;;;;;31.93;20.10;;;;;;;;;;4993198;28;20427;-79
2021/12/22 13:04:20;;;;;;;30.37;19.83;;;;;;;;;;5009771;28;20428;-79
2021/12/22 13:06:51;;;;;;;29.07;19.23;;;;;;;;;;5008903;28;20415;-79
2021/12/22 13:09:24;;;;;;;28.10;19.27;;;;;;;;;;5008782;28;21009;-79
2021/12/22 13:12:48;;;;;;;31.83;18.60;;;;;;;;;;5007821;28;20443;-79
2021/12/22 13:17:37;;;;;;;27.37;16.87;;;;;;;;;;5008673;28;20431;-79
2021/12/22 13:20:05;;;;;;;27.90;18.10;;;;;;;;;;5004506;28;20482;-79
2021/12/22 13:22:33;;;;;;;27.73;17.70;;;;;;;;;;5010764;28;20798;-79
2021/12/22 13:25:19;;;;;;;27.77;17.47;;;;;;;;;;5004490;28;20983;-79
2021/12/22 13:28:08;;;;;;;29.30;18.53;;;;;;;;;;5008323;28;21102;-79
2021/12/22 13:30:36;;;;;;;26.17;18.53;;;;;;;;;;5006726;28;21157;-79
2021/12/22 13:33:22;;;;;;;28.60;18.37;;;;;;;;;;5000494;28;21049;-79
2021/12/22 13:35:54;;;;;;;26.50;17.73;;;;;;;;;;5006151;28;20435;-79
2021/12/22 13:38:26;;;;;;;33.50;18.87;;;;;;;;;;4982469;28;20438;-78
2021/12/22 13:40:53;;;;;;;28.77;19.37;;;;;;;;;;4989844;28;21148;-79
2021/12/22 13:43:36;;;;;;;27.33;17.93;;;;;;;;;;5008128;28;20505;-80
2021/12/22 13:46:09;;;;;;;27.97;17.93;;;;;;;;;;5010413;28;20439;-79
2021/12/22 13:48:38;;;;;;;26.53;17.53;;;;;;;;;;4992773;28;20423;-79
2021/12/22 13:51:06;;;;;;;26.00;17.80;;;;;;;;;;5010812;28;20442;-79
2021/12/22 13:53:33;;;;;;;29.80;19.53;;;;;;;;;;4990321;28;21006;-79
2021/12/22 13:56:00;;;;;;;28.57;18.63;;;;;;;;;;5011103;28;20439;-80
2021/12/22 13:58:34;;;;;;;25.87;18.20;;;;;;;;;;4996021;28;20420;-80
2021/12/22 14:01:21;;;;;;;29.50;18.00;;;;;;;;;;5011171;28;20446;-80
2021/12/22 14:04:02;;;;;;;26.97;18.10;;;;;;;;;;4994574;28;20550;-80
2021/12/22 14:06:33;;;;;;;26.37;17.73;;;;;;;;;;4993511;28;20549;-80
2021/12/22 14:09:01;;;;;;;30.63;18.17;;;;;;;;;;4999459;28;20443;-79
2021/12/22 14:11:35;;;;;;;25.53;18.20;;;;;;;;;;5009507;28;20826;-80
2021/12/22 14:14:20;;;;;;;28.00;18.33;;;;;;;;;;4995523;28;20512;-79
2021/12/22 14:16:47;;;;;;;26.63;17.57;;;;;;;;;;5011959;28;20420;-79
2021/12/22 14:19:22;;;;;;;24.47;18.00;;;;;;;;;;4994264;28;20450;-80
2021/12/22 14:22:00;;;;;;;26.20;18.67;;;;;;;;;;4994239;28;20439;-79
2021/12/22 14:24:34;;;;;;;26.23;17.60;;;;;;;;;;5014484;28;20416;-80
2021/12/22 14:27:01;;;;;;;28.70;19.07;;;;;;;;;;4996995;28;20427;-80
2021/12/22 14:29:29;;;;;;;25.10;18.00;;;;;;;;;;5026995;28;20955;-79
2021/12/22 14:32:01;;;;;;;27.50;18.37;;;;;;;;;;5009265;28;20439;-79
2021/12/22 14:34:28;;;;;;;29.23;18.37;;;;;;;;;;5009577;28;20464;-80
2021/12/22 14:36:55;;;;;;;27.70;17.47;;;;;;;;;;4994931;28;20562;-80
2021/12/22 14:39:40;;;;;;;26.20;18.30;;;;;;;;;;4989363;28;20412;-80
2021/12/22 14:42:25;;;;;;;28.17;18.60;;;;;;;;;;5010403;28;20462;-80
2021/12/22 14:45:12;;;;;;;24.93;18.27;;;;;;;;;;5011552;28;21004;-79
2021/12/22 14:47:38;;;;;;;30.07;19.40;;;;;;;;;;5010985;28;20534;-79
2021/12/22 14:50:11;;;;;;;26.63;17.60;;;;;;;;;;4978535;28;20435;-79
2021/12/22 14:52:58;;;;;;;30.10;18.30;;;;;;;;;;4987500;28;21405;-79
2021/12/22 14:55:38;;;;;;;27.83;19.03;;;;;;;;;;4992502;28;20560;-80
2021/12/22 14:58:08;;;;;;;28.87;18.63;;;;;;;;;;5010059;28;20431;-80
2021/12/22 15:00:36;;;;;;;25.83;17.97;;;;;;;;;;5022586;28;20424;-80
2021/12/22 15:03:03;;;;;;;29.47;19.73;;;;;;;;;;5025129;28;20470;-80
2021/12/22 15:05:31;;;;;;;28.37;19.30;;;;;;;;;;5022888;28;21580;-79